PAMD METAR and TAF weather

Enter ICAO airport designator
Station Type Date Time Source
PAMD METAR 2022/06/28 14:51 UTC NOAA

PAMD 281451Z AUTO 26012G17KT 10SM OVC005 12/11 A3003 RMK AO2 SLP156 6//// T01170111 58012 PNO $


Station Type Date Time Source
PAMD Decoded METAR 2022/06/28 14:51 UTC NOAA

Middleton Island, Middleton Island Airport, AK, United States (PAMD) 59-26N 146-18W 14M
Jun 28, 2022 - 10:51 AM EDT / 2022.06.28 1451 UTC
Wind: from the W (260 degrees) at 14 MPH (12 KT) gusting to 20 MPH (17 KT):0
Visibility: 10 mile(s):0
Sky conditions: overcast
Temperature: 53.1 F (11.7 C)
Dew Point: 52.0 F (11.1 C)
Relative Humidity: 96%
Pressure (altimeter): 30.03 in. Hg (1016 hPa)
Pressure tendency: 0.04 inches (1.2 hPa) lower than three hours ago
ob: PAMD 281451Z AUTO 26012G17KT 10SM OVC005 12/11 A3003 RMK AO2 SLP156 6//// T01170111 58012 PNO
cycle: 15

Station Type Date Time Source
PAMD TAF UTC NOAA

Error!

Example: see airport list